sensor_id;sensor_type;location;lat;lon;timestamp;P1;durP1;ratioP1;P2;durP2;ratioP2
27071;SDS011;14613;46.308;25.288;2022-08-19T00:00:00;11.85;;;6.75;;
27071;SDS011;14613;46.308;25.288;2022-08-19T00:02:28;13.23;;;7.28;;
27071;SDS011;14613;46.308;25.288;2022-08-19T00:04:54;10.00;;;7.03;;
27071;SDS011;14613;46.308;25.288;2022-08-19T00:07:20;18.73;;;7.32;;
27071;SDS011;14613;46.308;25.288;2022-08-19T00:09:46;11.38;;;7.07;;
27071;SDS011;14613;46.308;25.288;2022-08-19T00:12:12;9.13;;;7.00;;
27071;SDS011;14613;46.308;25.288;2022-08-19T00:14:38;11.05;;;7.65;;
27071;SDS011;14613;46.308;25.288;2022-08-19T00:17:05;12.38;;;7.20;;
27071;SDS011;14613;46.308;25.288;2022-08-19T00:19:33;10.68;;;7.35;;
27071;SDS011;14613;46.308;25.288;2022-08-19T00:22:00;8.68;;;6.50;;
27071;SDS011;14613;46.308;25.288;2022-08-19T00:24:27;17.02;;;7.65;;
27071;SDS011;14613;46.308;25.288;2022-08-19T00:26:54;10.88;;;7.18;;
27071;SDS011;14613;46.308;25.288;2022-08-19T00:29:21;8.30;;;6.65;;
27071;SDS011;14613;46.308;25.288;2022-08-19T00:31:49;10.52;;;7.22;;
27071;SDS011;14613;46.308;25.288;2022-08-19T00:34:17;15.13;;;7.38;;
27071;SDS011;14613;46.308;25.288;2022-08-19T00:36:44;12.23;;;6.90;;
27071;SDS011;14613;46.308;25.288;2022-08-19T00:39:10;11.77;;;7.38;;
27071;SDS011;14613;46.308;25.288;2022-08-19T00:41:37;12.18;;;6.75;;
27071;SDS011;14613;46.308;25.288;2022-08-19T00:44:08;18.92;;;7.18;;
27071;SDS011;14613;46.308;25.288;2022-08-19T00:46:42;10.82;;;7.28;;
27071;SDS011;14613;46.308;25.288;2022-08-19T00:49:15;16.65;;;7.72;;
27071;SDS011;14613;46.308;25.288;2022-08-19T00:52:09;12.85;;;7.03;;
27071;SDS011;14613;46.308;25.288;2022-08-19T00:54:39;11.13;;;7.15;;
27071;SDS011;14613;46.308;25.288;2022-08-19T00:57:07;12.40;;;7.00;;
27071;SDS011;14613;46.308;25.288;2022-08-19T00:59:37;14.50;;;7.43;;
27071;SDS011;14613;46.308;25.288;2022-08-19T01:02:05;10.63;;;7.65;;
27071;SDS011;14613;46.308;25.288;2022-08-19T01:04:31;17.52;;;8.35;;
27071;SDS011;14613;46.308;25.288;2022-08-19T01:06:57;13.57;;;8.23;;
27071;SDS011;14613;46.308;25.288;2022-08-19T01:09:24;10.40;;;7.97;;
27071;SDS011;14613;46.308;25.288;2022-08-19T01:11:50;16.90;;;7.78;;
27071;SDS011;14613;46.308;25.288;2022-08-19T01:14:16;12.38;;;7.78;;
27071;SDS011;14613;46.308;25.288;2022-08-19T01:16:44;10.32;;;7.82;;
27071;SDS011;14613;46.308;25.288;2022-08-19T01:19:26;16.88;;;8.90;;
27071;SDS011;14613;46.308;25.288;2022-08-19T01:22:42;10.57;;;7.32;;
27071;SDS011;14613;46.308;25.288;2022-08-19T01:24:52;11.95;;;7.82;;
27071;SDS011;14613;46.308;25.288;2022-08-19T01:27:18;16.65;;;8.27;;
27071;SDS011;14613;46.308;25.288;2022-08-19T01:29:44;16.83;;;6.70;;
27071;SDS011;14613;46.308;25.288;2022-08-19T01:32:17;17.35;;;7.75;;
27071;SDS011;14613;46.308;25.288;2022-08-19T01:34:47;19.40;;;10.27;;
27071;SDS011;14613;46.308;25.288;2022-08-19T01:37:14;14.25;;;8.18;;
27071;SDS011;14613;46.308;25.288;2022-08-19T01:39:40;11.77;;;7.40;;
27071;SDS011;14613;46.308;25.288;2022-08-19T01:42:07;9.65;;;7.45;;
27071;SDS011;14613;46.308;25.288;2022-08-19T01:44:36;9.25;;;7.93;;
27071;SDS011;14613;46.308;25.288;2022-08-19T01:47:06;11.85;;;6.82;;
27071;SDS011;14613;46.308;25.288;2022-08-19T01:49:36;13.68;;;7.10;;
27071;SDS011;14613;46.308;25.288;2022-08-19T01:52:05;13.13;;;8.40;;
27071;SDS011;14613;46.308;25.288;2022-08-19T01:54:56;14.38;;;7.65;;
27071;SDS011;14613;46.308;25.288;2022-08-19T01:57:21;11.80;;;8.77;;
27071;SDS011;14613;46.308;25.288;2022-08-19T01:59:47;18.63;;;7.57;;
27071;SDS011;14613;46.308;25.288;2022-08-19T02:02:22;19.08;;;7.57;;
27071;SDS011;14613;46.308;25.288;2022-08-19T02:04:48;11.02;;;8.20;;
27071;SDS011;14613;46.308;25.288;2022-08-19T02:07:15;13.77;;;7.93;;
27071;SDS011;14613;46.308;25.288;2022-08-19T02:09:43;13.38;;;8.32;;
27071;SDS011;14613;46.308;25.288;2022-08-19T02:16:14;10.57;;;8.10;;
27071;SDS011;14613;46.308;25.288;2022-08-19T02:18:43;11.10;;;7.45;;
27071;SDS011;14613;46.308;25.288;2022-08-19T02:21:08;12.95;;;8.23;;
27071;SDS011;14613;46.308;25.288;2022-08-19T02:23:35;19.15;;;11.50;;
27071;SDS011;14613;46.308;25.288;2022-08-19T02:26:01;15.60;;;12.27;;
27071;SDS011;14613;46.308;25.288;2022-08-19T02:28:27;15.25;;;9.30;;
27071;SDS011;14613;46.308;25.288;2022-08-19T02:30:53;11.48;;;8.52;;
27071;SDS011;14613;46.308;25.288;2022-08-19T02:33:18;10.75;;;8.70;;
27071;SDS011;14613;46.308;25.288;2022-08-19T02:35:44;12.68;;;8.30;;
27071;SDS011;14613;46.308;25.288;2022-08-19T02:38:11;17.20;;;8.57;;
27071;SDS011;14613;46.308;25.288;2022-08-19T02:40:55;13.40;;;7.60;;
27071;SDS011;14613;46.308;25.288;2022-08-19T02:43:25;10.70;;;8.00;;
27071;SDS011;14613;46.308;25.288;2022-08-19T02:45:53;18.25;;;8.32;;
27071;SDS011;14613;46.308;25.288;2022-08-19T02:48:20;12.85;;;8.13;;
27071;SDS011;14613;46.308;25.288;2022-08-19T02:50:47;16.20;;;7.45;;
27071;SDS011;14613;46.308;25.288;2022-08-19T02:53:20;11.27;;;8.18;;
27071;SDS011;14613;46.308;25.288;2022-08-19T02:55:48;17.45;;;8.13;;
27071;SDS011;14613;46.308;25.288;2022-08-19T02:58:15;14.27;;;7.18;;
27071;SDS011;14613;46.308;25.288;2022-08-19T03:00:47;10.82;;;7.75;;
27071;SDS011;14613;46.308;25.288;2022-08-19T03:03:15;13.95;;;9.18;;
27071;SDS011;14613;46.308;25.288;2022-08-19T03:05:42;14.95;;;8.82;;
27071;SDS011;14613;46.308;25.288;2022-08-19T03:08:08;20.17;;;8.13;;
27071;SDS011;14613;46.308;25.288;2022-08-19T03:10:41;14.20;;;8.15;;
27071;SDS011;14613;46.308;25.288;2022-08-19T03:13:12;15.93;;;9.07;;
27071;SDS011;14613;46.308;25.288;2022-08-19T03:15:42;14.57;;;7.72;;
27071;SDS011;14613;46.308;25.288;2022-08-19T03:18:09;14.07;;;7.65;;
27071;SDS011;14613;46.308;25.288;2022-08-19T03:20:46;10.13;;;7.88;;
27071;SDS011;14613;46.308;25.288;2022-08-19T03:23:13;15.75;;;7.50;;
27071;SDS011;14613;46.308;25.288;2022-08-19T03:25:41;14.05;;;7.35;;
27071;SDS011;14613;46.308;25.288;2022-08-19T03:28:10;15.82;;;7.65;;
27071;SDS011;14613;46.308;25.288;2022-08-19T03:30:37;13.10;;;8.50;;
27071;SDS011;14613;46.308;25.288;2022-08-19T03:33:04;17.23;;;9.55;;
27071;SDS011;14613;46.308;25.288;2022-08-19T03:35:31;9.75;;;7.78;;
27071;SDS011;14613;46.308;25.288;2022-08-19T03:37:58;13.15;;;8.88;;
27071;SDS011;14613;46.308;25.288;2022-08-19T03:40:24;22.23;;;8.82;;
27071;SDS011;14613;46.308;25.288;2022-08-19T03:42:50;15.38;;;10.00;;
27071;SDS011;14613;46.308;25.288;2022-08-19T03:45:16;16.70;;;9.27;;
27071;SDS011;14613;46.308;25.288;2022-08-19T03:47:42;14.23;;;8.05;;
27071;SDS011;14613;46.308;25.288;2022-08-19T03:50:08;14.82;;;9.50;;
27071;SDS011;14613;46.308;25.288;2022-08-19T03:52:34;20.13;;;8.65;;
27071;SDS011;14613;46.308;25.288;2022-08-19T03:55:01;13.68;;;8.20;;
27071;SDS011;14613;46.308;25.288;2022-08-19T03:57:27;15.13;;;8.35;;
27071;SDS011;14613;46.308;25.288;2022-08-19T03:59:53;12.65;;;8.90;;
27071;SDS011;14613;46.308;25.288;2022-08-19T04:02:19;14.95;;;7.50;;
27071;SDS011;14613;46.308;25.288;2022-08-19T04:04:45;14.38;;;8.65;;
27071;SDS011;14613;46.308;25.288;2022-08-19T04:07:12;16.55;;;7.50;;
27071;SDS011;14613;46.308;25.288;2022-08-19T04:09:43;12.52;;;7.32;;
27071;SDS011;14613;46.308;25.288;2022-08-19T04:12:08;14.65;;;7.07;;
27071;SDS011;14613;46.308;25.288;2022-08-19T04:14:34;11.07;;;7.15;;
27071;SDS011;14613;46.308;25.288;2022-08-19T04:17:00;13.57;;;7.47;;
27071;SDS011;14613;46.308;25.288;2022-08-19T04:19:29;10.43;;;7.55;;
27071;SDS011;14613;46.308;25.288;2022-08-19T04:21:56;9.73;;;7.45;;
27071;SDS011;14613;46.308;25.288;2022-08-19T04:24:23;10.63;;;7.28;;
27071;SDS011;14613;46.308;25.288;2022-08-19T04:26:49;13.88;;;9.20;;
27071;SDS011;14613;46.308;25.288;2022-08-19T04:29:16;17.33;;;7.88;;
27071;SDS011;14613;46.308;25.288;2022-08-19T04:31:44;11.30;;;7.70;;
27071;SDS011;14613;46.308;25.288;2022-08-19T04:34:12;15.88;;;7.80;;
27071;SDS011;14613;46.308;25.288;2022-08-19T04:36:40;20.30;;;10.15;;
27071;SDS011;14613;46.308;25.288;2022-08-19T04:39:14;16.58;;;8.73;;
27071;SDS011;14613;46.308;25.288;2022-08-19T04:41:41;9.27;;;6.45;;
27071;SDS011;14613;46.308;25.288;2022-08-19T04:44:26;13.65;;;7.13;;
27071;SDS011;14613;46.308;25.288;2022-08-19T04:46:55;15.35;;;6.65;;
27071;SDS011;14613;46.308;25.288;2022-08-19T04:49:22;12.52;;;7.85;;
27071;SDS011;14613;46.308;25.288;2022-08-19T04:51:48;9.88;;;6.82;;
27071;SDS011;14613;46.308;25.288;2022-08-19T04:54:16;13.65;;;6.90;;
27071;SDS011;14613;46.308;25.288;2022-08-19T04:56:43;11.13;;;6.75;;
27071;SDS011;14613;46.308;25.288;2022-08-19T04:59:09;12.50;;;7.03;;
27071;SDS011;14613;46.308;25.288;2022-08-19T05:01:36;13.05;;;6.97;;
27071;SDS011;14613;46.308;25.288;2022-08-19T05:04:03;13.85;;;6.28;;
27071;SDS011;14613;46.308;25.288;2022-08-19T05:06:31;11.88;;;7.53;;
27071;SDS011;14613;46.308;25.288;2022-08-19T05:09:07;11.90;;;7.57;;
27071;SDS011;14613;46.308;25.288;2022-08-19T05:11:34;11.15;;;7.38;;
27071;SDS011;14613;46.308;25.288;2022-08-19T05:14:03;16.50;;;8.60;;
27071;SDS011;14613;46.308;25.288;2022-08-19T05:16:29;27.00;;;8.43;;
27071;SDS011;14613;46.308;25.288;2022-08-19T05:18:55;15.57;;;7.75;;
27071;SDS011;14613;46.308;25.288;2022-08-19T05:21:40;20.20;;;9.52;;
27071;SDS011;14613;46.308;25.288;2022-08-19T05:24:26;14.70;;;8.82;;
27071;SDS011;14613;46.308;25.288;2022-08-19T05:26:52;18.27;;;8.85;;
27071;SDS011;14613;46.308;25.288;2022-08-19T05:29:21;22.40;;;8.35;;
27071;SDS011;14613;46.308;25.288;2022-08-19T05:31:49;16.90;;;7.55;;
27071;SDS011;14613;46.308;25.288;2022-08-19T05:34:16;16.88;;;7.60;;
27071;SDS011;14613;46.308;25.288;2022-08-19T05:36:48;15.93;;;6.78;;
27071;SDS011;14613;46.308;25.288;2022-08-19T05:39:16;13.48;;;6.70;;
27071;SDS011;14613;46.308;25.288;2022-08-19T05:41:48;12.27;;;6.40;;
27071;SDS011;14613;46.308;25.288;2022-08-19T05:44:16;19.23;;;6.55;;
27071;SDS011;14613;46.308;25.288;2022-08-19T05:46:43;13.95;;;6.95;;
27071;SDS011;14613;46.308;25.288;2022-08-19T05:49:12;17.40;;;7.45;;
27071;SDS011;14613;46.308;25.288;2022-08-19T05:51:38;11.00;;;7.65;;
27071;SDS011;14613;46.308;25.288;2022-08-19T05:54:04;14.10;;;6.82;;
27071;SDS011;14613;46.308;25.288;2022-08-19T05:56:33;14.00;;;6.43;;
27071;SDS011;14613;46.308;25.288;2022-08-19T05:59:03;12.20;;;6.13;;
27071;SDS011;14613;46.308;25.288;2022-08-19T06:01:33;14.02;;;6.40;;
27071;SDS011;14613;46.308;25.288;2022-08-19T06:03:59;18.60;;;6.57;;
27071;SDS011;14613;46.308;25.288;2022-08-19T06:06:25;11.77;;;6.05;;
27071;SDS011;14613;46.308;25.288;2022-08-19T06:08:51;10.60;;;6.63;;
27071;SDS011;14613;46.308;25.288;2022-08-19T06:11:22;13.13;;;6.03;;
27071;SDS011;14613;46.308;25.288;2022-08-19T06:13:51;11.32;;;7.75;;
27071;SDS011;14613;46.308;25.288;2022-08-19T06:16:19;15.40;;;7.15;;
27071;SDS011;14613;46.308;25.288;2022-08-19T06:18:51;17.52;;;6.53;;
27071;SDS011;14613;46.308;25.288;2022-08-19T06:21:19;12.82;;;7.30;;
27071;SDS011;14613;46.308;25.288;2022-08-19T06:23:49;14.32;;;6.88;;
27071;SDS011;14613;46.308;25.288;2022-08-19T06:26:16;9.82;;;5.68;;
27071;SDS011;14613;46.308;25.288;2022-08-19T06:28:42;22.13;;;7.50;;
27071;SDS011;14613;46.308;25.288;2022-08-19T06:31:22;15.10;;;6.18;;
27071;SDS011;14613;46.308;25.288;2022-08-19T06:33:51;7.30;;;5.93;;
27071;SDS011;14613;46.308;25.288;2022-08-19T06:36:18;14.38;;;6.70;;
27071;SDS011;14613;46.308;25.288;2022-08-19T06:38:45;16.70;;;6.28;;
27071;SDS011;14613;46.308;25.288;2022-08-19T06:41:11;10.85;;;6.07;;
27071;SDS011;14613;46.308;25.288;2022-08-19T06:43:37;14.68;;;6.60;;
27071;SDS011;14613;46.308;25.288;2022-08-19T06:46:03;12.73;;;5.75;;
27071;SDS011;14613;46.308;25.288;2022-08-19T06:48:29;14.73;;;6.32;;
27071;SDS011;14613;46.308;25.288;2022-08-19T06:50:56;7.75;;;5.50;;
27071;SDS011;14613;46.308;25.288;2022-08-19T06:53:22;10.13;;;6.07;;
27071;SDS011;14613;46.308;25.288;2022-08-19T06:55:48;12.10;;;4.85;;
27071;SDS011;14613;46.308;25.288;2022-08-19T06:58:22;18.33;;;6.80;;
27071;SDS011;14613;46.308;25.288;2022-08-19T07:00:48;17.77;;;9.80;;
27071;SDS011;14613;46.308;25.288;2022-08-19T07:03:15;10.07;;;5.68;;
27071;SDS011;14613;46.308;25.288;2022-08-19T07:05:41;12.77;;;5.78;;
27071;SDS011;14613;46.308;25.288;2022-08-19T07:08:07;7.88;;;5.57;;
27071;SDS011;14613;46.308;25.288;2022-08-19T07:10:34;10.23;;;5.05;;
27071;SDS011;14613;46.308;25.288;2022-08-19T07:13:02;11.60;;;5.88;;
27071;SDS011;14613;46.308;25.288;2022-08-19T07:15:28;8.73;;;6.07;;
27071;SDS011;14613;46.308;25.288;2022-08-19T07:17:54;9.95;;;6.25;;
27071;SDS011;14613;46.308;25.288;2022-08-19T07:20:20;14.52;;;6.68;;
27071;SDS011;14613;46.308;25.288;2022-08-19T07:22:46;12.18;;;5.70;;
27071;SDS011;14613;46.308;25.288;2022-08-19T07:25:12;10.50;;;5.65;;
27071;SDS011;14613;46.308;25.288;2022-08-19T07:27:38;15.40;;;6.25;;
27071;SDS011;14613;46.308;25.288;2022-08-19T07:30:04;7.72;;;5.43;;
27071;SDS011;14613;46.308;25.288;2022-08-19T07:32:31;9.95;;;5.80;;
27071;SDS011;14613;46.308;25.288;2022-08-19T07:34:57;12.10;;;5.80;;
27071;SDS011;14613;46.308;25.288;2022-08-19T07:37:25;12.20;;;5.78;;
27071;SDS011;14613;46.308;25.288;2022-08-19T07:39:53;10.88;;;5.38;;
27071;SDS011;14613;46.308;25.288;2022-08-19T07:42:19;7.68;;;6.07;;
27071;SDS011;14613;46.308;25.288;2022-08-19T07:44:46;11.85;;;6.18;;
27071;SDS011;14613;46.308;25.288;2022-08-19T07:47:11;8.57;;;5.45;;
27071;SDS011;14613;46.308;25.288;2022-08-19T07:49:40;9.98;;;5.38;;
27071;SDS011;14613;46.308;25.288;2022-08-19T07:52:07;10.38;;;5.47;;
27071;SDS011;14613;46.308;25.288;2022-08-19T07:54:35;11.23;;;5.45;;
27071;SDS011;14613;46.308;25.288;2022-08-19T07:57:03;10.13;;;5.18;;
27071;SDS011;14613;46.308;25.288;2022-08-19T07:59:29;13.32;;;5.07;;
27071;SDS011;14613;46.308;25.288;2022-08-19T08:01:56;10.30;;;5.43;;
27071;SDS011;14613;46.308;25.288;2022-08-19T08:04:25;6.90;;;5.10;;
27071;SDS011;14613;46.308;25.288;2022-08-19T08:07:10;11.73;;;4.72;;
27071;SDS011;14613;46.308;25.288;2022-08-19T08:09:55;11.57;;;5.38;;
27071;SDS011;14613;46.308;25.288;2022-08-19T08:12:22;10.82;;;4.95;;
27071;SDS011;14613;46.308;25.288;2022-08-19T08:14:55;6.18;;;4.47;;
27071;SDS011;14613;46.308;25.288;2022-08-19T08:17:24;9.82;;;4.90;;
27071;SDS011;14613;46.308;25.288;2022-08-19T08:19:52;7.70;;;4.95;;
27071;SDS011;14613;46.308;25.288;2022-08-19T08:22:19;14.55;;;5.45;;
27071;SDS011;14613;46.308;25.288;2022-08-19T08:25:06;9.60;;;4.97;;
27071;SDS011;14613;46.308;25.288;2022-08-19T08:27:38;10.75;;;4.85;;
27071;SDS011;14613;46.308;25.288;2022-08-19T08:30:08;7.50;;;4.60;;
27071;SDS011;14613;46.308;25.288;2022-08-19T08:32:36;12.43;;;4.90;;
27071;SDS011;14613;46.308;25.288;2022-08-19T08:35:07;8.10;;;4.78;;
27071;SDS011;14613;46.308;25.288;2022-08-19T08:37:35;10.48;;;4.95;;
27071;SDS011;14613;46.308;25.288;2022-08-19T08:40:45;6.88;;;5.03;;
27071;SDS011;14613;46.308;25.288;2022-08-19T08:43:33;9.13;;;5.00;;
27071;SDS011;14613;46.308;25.288;2022-08-19T08:46:09;13.38;;;4.43;;
27071;SDS011;14613;46.308;25.288;2022-08-19T08:48:44;9.82;;;4.47;;
27071;SDS011;14613;46.308;25.288;2022-08-19T08:51:29;9.27;;;4.45;;
27071;SDS011;14613;46.308;25.288;2022-08-19T08:54:18;7.28;;;4.70;;
27071;SDS011;14613;46.308;25.288;2022-08-19T08:56:45;8.20;;;4.88;;
27071;SDS011;14613;46.308;25.288;2022-08-19T09:01:49;8.30;;;4.75;;
27071;SDS011;14613;46.308;25.288;2022-08-19T09:04:15;10.75;;;5.05;;
27071;SDS011;14613;46.308;25.288;2022-08-19T09:09:20;7.70;;;5.38;;
27071;SDS011;14613;46.308;25.288;2022-08-19T09:15:00;12.35;;;4.63;;
27071;SDS011;14613;46.308;25.288;2022-08-19T09:17:30;8.35;;;4.60;;
27071;SDS011;14613;46.308;25.288;2022-08-19T09:22:33;7.55;;;4.13;;
27071;SDS011;14613;46.308;25.288;2022-08-19T09:24:59;11.93;;;4.78;;
27071;SDS011;14613;46.308;25.288;2022-08-19T09:27:25;12.80;;;5.30;;
27071;SDS011;14613;46.308;25.288;2022-08-19T09:29:52;9.40;;;4.80;;
27071;SDS011;14613;46.308;25.288;2022-08-19T09:32:19;8.25;;;4.32;;
27071;SDS011;14613;46.308;25.288;2022-08-19T09:34:45;12.73;;;4.72;;
27071;SDS011;14613;46.308;25.288;2022-08-19T09:37:11;12.25;;;4.00;;
27071;SDS011;14613;46.308;25.288;2022-08-19T09:39:38;7.40;;;4.38;;
27071;SDS011;14613;46.308;25.288;2022-08-19T09:42:06;8.68;;;4.50;;
27071;SDS011;14613;46.308;25.288;2022-08-19T09:44:37;9.95;;;4.88;;
27071;SDS011;14613;46.308;25.288;2022-08-19T09:47:03;10.18;;;4.95;;
27071;SDS011;14613;46.308;25.288;2022-08-19T09:49:29;9.35;;;4.32;;
27071;SDS011;14613;46.308;25.288;2022-08-19T09:51:56;6.80;;;4.40;;
27071;SDS011;14613;46.308;25.288;2022-08-19T09:54:22;13.82;;;4.10;;
27071;SDS011;14613;46.308;25.288;2022-08-19T09:56:48;11.70;;;4.38;;
27071;SDS011;14613;46.308;25.288;2022-08-19T09:59:14;6.40;;;4.25;;
27071;SDS011;14613;46.308;25.288;2022-08-19T10:01:40;4.57;;;3.75;;
27071;SDS011;14613;46.308;25.288;2022-08-19T10:04:06;4.53;;;3.80;;
27071;SDS011;14613;46.308;25.288;2022-08-19T10:06:34;9.48;;;4.43;;
27071;SDS011;14613;46.308;25.288;2022-08-19T10:09:02;8.55;;;4.03;;
27071;SDS011;14613;46.308;25.288;2022-08-19T10:11:31;9.52;;;4.10;;
27071;SDS011;14613;46.308;25.288;2022-08-19T10:13:58;4.53;;;3.63;;
27071;SDS011;14613;46.308;25.288;2022-08-19T10:16:24;7.78;;;4.00;;
27071;SDS011;14613;46.308;25.288;2022-08-19T10:18:51;7.47;;;4.10;;
27071;SDS011;14613;46.308;25.288;2022-08-19T10:23:49;6.20;;;4.38;;
27071;SDS011;14613;46.308;25.288;2022-08-19T10:26:19;6.15;;;3.53;;
27071;SDS011;14613;46.308;25.288;2022-08-19T10:28:46;7.00;;;4.03;;
27071;SDS011;14613;46.308;25.288;2022-08-19T10:31:14;8.00;;;4.10;;
27071;SDS011;14613;46.308;25.288;2022-08-19T10:33:42;6.88;;;4.30;;
27071;SDS011;14613;46.308;25.288;2022-08-19T10:36:10;9.50;;;3.88;;
27071;SDS011;14613;46.308;25.288;2022-08-19T10:38:40;12.68;;;4.00;;
27071;SDS011;14613;46.308;25.288;2022-08-19T10:41:07;7.88;;;3.50;;
27071;SDS011;14613;46.308;25.288;2022-08-19T10:43:37;9.60;;;4.53;;
27071;SDS011;14613;46.308;25.288;2022-08-19T10:46:06;4.65;;;3.78;;
27071;SDS011;14613;46.308;25.288;2022-08-19T10:48:33;9.35;;;3.90;;
27071;SDS011;14613;46.308;25.288;2022-08-19T10:50:59;8.30;;;3.75;;
27071;SDS011;14613;46.308;25.288;2022-08-19T10:53:44;12.32;;;3.45;;
27071;SDS011;14613;46.308;25.288;2022-08-19T10:56:10;4.78;;;3.72;;
27071;SDS011;14613;46.308;25.288;2022-08-19T10:58:55;4.78;;;3.70;;
27071;SDS011;14613;46.308;25.288;2022-08-19T11:01:22;5.05;;;3.90;;
27071;SDS011;14613;46.308;25.288;2022-08-19T11:03:49;8.88;;;3.30;;
27071;SDS011;14613;46.308;25.288;2022-08-19T11:06:15;5.75;;;3.58;;
27071;SDS011;14613;46.308;25.288;2022-08-19T11:08:41;4.80;;;3.88;;
27071;SDS011;14613;46.308;25.288;2022-08-19T11:11:10;9.93;;;4.22;;
27071;SDS011;14613;46.308;25.288;2022-08-19T11:13:37;8.40;;;3.88;;
27071;SDS011;14613;46.308;25.288;2022-08-19T11:16:09;6.53;;;3.33;;
27071;SDS011;14613;46.308;25.288;2022-08-19T11:18:40;9.35;;;3.83;;
27071;SDS011;14613;46.308;25.288;2022-08-19T11:21:19;6.43;;;3.83;;
27071;SDS011;14613;46.308;25.288;2022-08-19T11:23:46;8.68;;;3.72;;
27071;SDS011;14613;46.308;25.288;2022-08-19T11:26:14;7.22;;;4.10;;
27071;SDS011;14613;46.308;25.288;2022-08-19T11:28:41;9.80;;;3.75;;
27071;SDS011;14613;46.308;25.288;2022-08-19T11:31:11;8.25;;;3.70;;
27071;SDS011;14613;46.308;25.288;2022-08-19T11:33:38;9.98;;;3.67;;
27071;SDS011;14613;46.308;25.288;2022-08-19T11:36:04;8.73;;;4.18;;
27071;SDS011;14613;46.308;25.288;2022-08-19T11:38:30;11.20;;;4.13;;
27071;SDS011;14613;46.308;25.288;2022-08-19T11:41:00;6.80;;;3.85;;
27071;SDS011;14613;46.308;25.288;2022-08-19T11:43:28;4.28;;;3.85;;
27071;SDS011;14613;46.308;25.288;2022-08-19T11:45:55;7.32;;;3.38;;
27071;SDS011;14613;46.308;25.288;2022-08-19T11:48:22;8.00;;;3.78;;
27071;SDS011;14613;46.308;25.288;2022-08-19T11:50:49;7.82;;;4.22;;
27071;SDS011;14613;46.308;25.288;2022-08-19T11:53:16;5.90;;;4.22;;
27071;SDS011;14613;46.308;25.288;2022-08-19T11:55:43;5.45;;;4.15;;
27071;SDS011;14613;46.308;25.288;2022-08-19T11:58:11;9.27;;;4.10;;
27071;SDS011;14613;46.308;25.288;2022-08-19T12:00:38;9.35;;;4.13;;
27071;SDS011;14613;46.308;25.288;2022-08-19T12:03:04;4.53;;;3.65;;
27071;SDS011;14613;46.308;25.288;2022-08-19T12:05:31;8.80;;;3.63;;
27071;SDS011;14613;46.308;25.288;2022-08-19T12:07:57;14.85;;;4.57;;
27071;SDS011;14613;46.308;25.288;2022-08-19T12:10:23;4.85;;;3.47;;
27071;SDS011;14613;46.308;25.288;2022-08-19T12:12:49;7.60;;;3.58;;
27071;SDS011;14613;46.308;25.288;2022-08-19T12:15:15;10.02;;;3.78;;
27071;SDS011;14613;46.308;25.288;2022-08-19T12:17:41;8.93;;;3.45;;
27071;SDS011;14613;46.308;25.288;2022-08-19T12:20:08;11.43;;;3.53;;
27071;SDS011;14613;46.308;25.288;2022-08-19T12:22:38;14.93;;;5.32;;
27071;SDS011;14613;46.308;25.288;2022-08-19T12:25:06;6.00;;;3.58;;
27071;SDS011;14613;46.308;25.288;2022-08-19T12:27:34;9.18;;;3.58;;
27071;SDS011;14613;46.308;25.288;2022-08-19T12:30:00;7.13;;;3.42;;
27071;SDS011;14613;46.308;25.288;2022-08-19T12:32:27;6.80;;;3.50;;
27071;SDS011;14613;46.308;25.288;2022-08-19T12:34:53;9.02;;;3.65;;
27071;SDS011;14613;46.308;25.288;2022-08-19T12:37:19;8.52;;;4.18;;
27071;SDS011;14613;46.308;25.288;2022-08-19T12:39:45;8.85;;;3.95;;
27071;SDS011;14613;46.308;25.288;2022-08-19T12:42:12;7.50;;;3.80;;
27071;SDS011;14613;46.308;25.288;2022-08-19T12:44:39;10.32;;;3.65;;
27071;SDS011;14613;46.308;25.288;2022-08-19T12:47:07;7.90;;;4.22;;
27071;SDS011;14613;46.308;25.288;2022-08-19T12:49:35;9.68;;;3.38;;
27071;SDS011;14613;46.308;25.288;2022-08-19T12:52:02;4.53;;;3.67;;
27071;SDS011;14613;46.308;25.288;2022-08-19T12:54:29;12.05;;;3.30;;
27071;SDS011;14613;46.308;25.288;2022-08-19T12:56:56;6.38;;;3.30;;
27071;SDS011;14613;46.308;25.288;2022-08-19T12:59:23;9.63;;;3.50;;
27071;SDS011;14613;46.308;25.288;2022-08-19T13:04:34;8.80;;;3.70;;
27071;SDS011;14613;46.308;25.288;2022-08-19T13:07:01;8.18;;;4.07;;
27071;SDS011;14613;46.308;25.288;2022-08-19T13:09:27;9.32;;;3.72;;
27071;SDS011;14613;46.308;25.288;2022-08-19T13:11:53;11.80;;;4.38;;
27071;SDS011;14613;46.308;25.288;2022-08-19T13:14:19;13.18;;;4.07;;
27071;SDS011;14613;46.308;25.288;2022-08-19T13:16:45;4.72;;;3.38;;
27071;SDS011;14613;46.308;25.288;2022-08-19T13:19:11;8.30;;;3.50;;
27071;SDS011;14613;46.308;25.288;2022-08-19T13:21:38;8.45;;;3.65;;
27071;SDS011;14613;46.308;25.288;2022-08-19T13:24:03;7.82;;;3.35;;
27071;SDS011;14613;46.308;25.288;2022-08-19T13:26:29;7.80;;;3.63;;
27071;SDS011;14613;46.308;25.288;2022-08-19T13:28:55;6.45;;;5.00;;
27071;SDS011;14613;46.308;25.288;2022-08-19T13:31:40;7.55;;;4.78;;
27071;SDS011;14613;46.308;25.288;2022-08-19T13:34:30;5.72;;;3.65;;
27071;SDS011;14613;46.308;25.288;2022-08-19T13:36:59;13.20;;;3.63;;
27071;SDS011;14613;46.308;25.288;2022-08-19T13:39:27;10.18;;;3.28;;
27071;SDS011;14613;46.308;25.288;2022-08-19T13:41:54;6.57;;;3.13;;
27071;SDS011;14613;46.308;25.288;2022-08-19T13:44:20;5.88;;;3.55;;
27071;SDS011;14613;46.308;25.288;2022-08-19T13:46:46;8.38;;;3.47;;
27071;SDS011;14613;46.308;25.288;2022-08-19T13:49:13;6.57;;;3.65;;
27071;SDS011;14613;46.308;25.288;2022-08-19T13:51:40;8.15;;;3.95;;
27071;SDS011;14613;46.308;25.288;2022-08-19T13:54:08;16.52;;;3.38;;
27071;SDS011;14613;46.308;25.288;2022-08-19T13:56:35;12.25;;;3.80;;
27071;SDS011;14613;46.308;25.288;2022-08-19T13:59:07;6.82;;;3.35;;
27071;SDS011;14613;46.308;25.288;2022-08-19T14:01:33;8.32;;;3.42;;
27071;SDS011;14613;46.308;25.288;2022-08-19T14:03:59;14.15;;;3.70;;
27071;SDS011;14613;46.308;25.288;2022-08-19T14:06:26;7.88;;;4.40;;
27071;SDS011;14613;46.308;25.288;2022-08-19T14:08:51;6.13;;;3.20;;
27071;SDS011;14613;46.308;25.288;2022-08-19T14:11:17;5.55;;;3.45;;
27071;SDS011;14613;46.308;25.288;2022-08-19T14:13:43;6.75;;;3.50;;
27071;SDS011;14613;46.308;25.288;2022-08-19T14:16:10;9.30;;;3.50;;
27071;SDS011;14613;46.308;25.288;2022-08-19T14:18:37;8.52;;;3.50;;
27071;SDS011;14613;46.308;25.288;2022-08-19T14:21:04;13.02;;;3.60;;
27071;SDS011;14613;46.308;25.288;2022-08-19T14:23:31;9.27;;;3.65;;
27071;SDS011;14613;46.308;25.288;2022-08-19T14:26:08;11.93;;;3.35;;
27071;SDS011;14613;46.308;25.288;2022-08-19T14:28:36;12.23;;;4.47;;
27071;SDS011;14613;46.308;25.288;2022-08-19T14:31:04;5.93;;;3.47;;
27071;SDS011;14613;46.308;25.288;2022-08-19T14:33:30;6.97;;;3.78;;
27071;SDS011;14613;46.308;25.288;2022-08-19T14:35:57;11.35;;;3.30;;
27071;SDS011;14613;46.308;25.288;2022-08-19T14:38:23;6.35;;;3.83;;
27071;SDS011;14613;46.308;25.288;2022-08-19T14:40:49;9.25;;;3.58;;
27071;SDS011;14613;46.308;25.288;2022-08-19T14:43:17;5.72;;;3.25;;
27071;SDS011;14613;46.308;25.288;2022-08-19T14:45:42;9.50;;;3.53;;
27071;SDS011;14613;46.308;25.288;2022-08-19T14:48:08;5.95;;;3.50;;
27071;SDS011;14613;46.308;25.288;2022-08-19T14:50:34;13.30;;;3.58;;
27071;SDS011;14613;46.308;25.288;2022-08-19T14:53:11;8.13;;;3.97;;